createdAt,value
2018-01-14T00:01:10.828Z,23.27
2018-01-14T00:03:39.195Z,29.00
2018-01-14T00:06:07.966Z,25.17
2018-01-14T00:08:36.341Z,33.10
2018-01-14T00:11:05.594Z,23.70
2018-01-14T00:13:33.975Z,25.83
2018-01-14T00:16:02.350Z,29.50
2018-01-14T00:18:30.708Z,30.70
2018-01-14T00:20:59.077Z,30.00
2018-01-14T00:23:27.911Z,33.60
2018-01-14T00:25:56.314Z,26.43
2018-01-14T00:28:24.670Z,30.87
2018-01-14T00:30:53.157Z,26.73
2018-01-14T00:33:21.520Z,35.00
2018-01-14T00:35:49.933Z,30.40
2018-01-14T00:38:18.391Z,30.10
2018-01-14T00:40:46.776Z,25.60
2018-01-14T00:43:15.145Z,27.53
2018-01-14T00:45:43.512Z,24.23
2018-01-14T00:48:11.872Z,35.67
2018-01-14T00:50:40.308Z,24.83
2018-01-14T00:53:08.688Z,31.37
2018-01-14T00:55:37.161Z,33.03
2018-01-14T00:58:05.529Z,28.13
2018-01-14T01:00:33.914Z,25.23
2018-01-14T01:03:02.298Z,29.00
2018-01-14T01:05:30.669Z,25.50
2018-01-14T01:07:59.042Z,31.60
2018-01-14T01:10:27.403Z,26.73
2018-01-14T01:12:55.760Z,26.23
2018-01-14T01:15:24.127Z,26.70
2018-01-14T01:17:52.898Z,30.30
2018-01-14T01:20:21.253Z,31.00
2018-01-14T01:22:50.043Z,23.57
2018-01-14T01:25:18.819Z,29.43
2018-01-14T01:27:47.177Z,27.67
2018-01-14T01:30:15.589Z,27.87
2018-01-14T01:32:44.382Z,30.70
2018-01-14T01:35:12.767Z,24.13
2018-01-14T01:37:41.215Z,28.73
2018-01-14T01:40:09.573Z,25.93
2018-01-14T01:42:38.010Z,21.40
2018-01-14T01:45:06.505Z,29.80
2018-01-14T01:47:35.356Z,32.93
2018-01-14T01:50:03.716Z,33.10
2018-01-14T01:52:32.096Z,27.63
2018-01-14T01:55:00.452Z,29.13
2018-01-14T01:57:28.828Z,28.20
2018-01-14T01:59:57.216Z,29.40
2018-01-14T02:02:25.588Z,32.00
2018-01-14T02:04:54.108Z,23.80
2018-01-14T02:07:22.479Z,28.90
2018-01-14T02:09:50.848Z,27.63
2018-01-14T02:12:20.227Z,35.97
2018-01-14T02:14:48.633Z,22.40
2018-01-14T02:17:16.987Z,25.77
2018-01-14T02:19:45.343Z,24.73
2018-01-14T02:22:14.131Z,24.20
2018-01-14T02:24:42.577Z,27.37
2018-01-14T02:27:10.945Z,24.97
2018-01-14T02:29:39.323Z,22.60
2018-01-14T02:32:07.695Z,24.90
2018-01-14T02:34:36.061Z,21.40
2018-01-14T02:37:05.277Z,28.47
2018-01-14T02:39:33.646Z,22.20
2018-01-14T02:42:02.047Z,20.37
2018-01-14T02:44:30.428Z,25.07
2018-01-14T02:46:58.781Z,22.17
2018-01-14T02:49:27.179Z,21.57
2018-01-14T02:51:55.560Z,24.47
2018-01-14T02:54:23.956Z,21.10
2018-01-14T02:56:52.324Z,28.13
2018-01-14T02:59:20.711Z,24.20
2018-01-14T03:01:49.080Z,30.43
2018-01-14T03:04:17.450Z,21.63
2018-01-14T03:06:45.905Z,22.73
2018-01-14T03:09:14.332Z,25.43
2018-01-14T03:11:42.806Z,22.33
2018-01-14T03:14:11.384Z,23.33
2018-01-14T03:16:39.749Z,27.83
2018-01-14T03:19:08.140Z,23.37
2018-01-14T03:21:36.621Z,25.60
2018-01-14T03:24:04.976Z,21.80
2018-01-14T03:26:33.380Z,23.63
2018-01-14T03:29:01.840Z,19.73
2018-01-14T03:31:30.234Z,25.57
2018-01-14T03:33:58.599Z,20.40
2018-01-14T03:36:26.978Z,25.70
2018-01-14T03:38:55.332Z,19.90
2018-01-14T03:41:23.758Z,21.43
2018-01-14T03:43:52.136Z,21.63
2018-01-14T03:46:20.492Z,23.97
2018-01-14T03:48:48.885Z,20.83
2018-01-14T03:51:17.276Z,19.23
2018-01-14T03:53:45.634Z,23.40
2018-01-14T03:56:14.046Z,29.87
2018-01-14T03:58:42.678Z,22.70
2018-01-14T04:01:11.086Z,27.43
2018-01-14T04:03:39.467Z,25.03
2018-01-14T04:06:07.847Z,23.00
2018-01-14T04:11:10.696Z,26.17
2018-01-14T04:13:39.450Z,19.93
2018-01-14T04:16:07.810Z,24.70
2018-01-14T04:18:37.103Z,25.07
2018-01-14T04:21:05.507Z,21.67
2018-01-14T04:23:33.860Z,25.00
2018-01-14T04:26:02.268Z,21.73
2018-01-14T04:28:30.642Z,32.63
2018-01-14T04:30:59.020Z,25.53
2018-01-14T04:33:28.183Z,26.57
2018-01-14T04:35:56.575Z,22.10
2018-01-14T04:38:24.951Z,32.03
2018-01-14T04:40:53.332Z,24.40
2018-01-14T04:43:21.716Z,21.43
2018-01-14T04:45:50.076Z,24.93
2018-01-14T04:48:18.454Z,21.03
2018-01-14T04:50:46.856Z,28.13
2018-01-14T04:53:15.338Z,27.77
2018-01-14T04:55:43.699Z,26.40
2018-01-14T04:58:12.144Z,28.37
2018-01-14T05:00:40.924Z,27.83
2018-01-14T05:03:09.674Z,32.83
2018-01-14T05:05:38.047Z,27.77
2018-01-14T05:08:06.408Z,38.47
2018-01-14T05:10:34.804Z,28.13
2018-01-14T05:13:03.180Z,32.00
2018-01-14T05:15:31.541Z,30.00
2018-01-14T05:17:59.935Z,30.97
2018-01-14T05:20:28.582Z,33.40
2018-01-14T05:22:57.000Z,27.10
2018-01-14T05:25:25.385Z,28.80
2018-01-14T05:27:53.760Z,30.50
2018-01-14T05:30:22.138Z,27.80
2018-01-14T05:32:50.583Z,25.90
2018-01-14T05:35:18.943Z,25.37
2018-01-14T05:37:47.719Z,25.63
2018-01-14T05:40:16.165Z,45.10
2018-01-14T05:42:45.467Z,30.70
2018-01-14T05:45:13.846Z,28.40
2018-01-14T05:47:42.221Z,28.13
2018-01-14T05:50:10.604Z,34.93
2018-01-14T05:52:38.979Z,29.20
2018-01-14T05:55:07.343Z,39.50
2018-01-14T05:57:35.751Z,33.87
2018-01-14T06:00:04.116Z,29.80
2018-01-14T06:02:32.503Z,31.13
2018-01-14T06:05:00.862Z,32.93
2018-01-14T06:07:29.239Z,27.57
2018-01-14T06:09:57.642Z,33.97
2018-01-14T06:12:26.020Z,30.30
2018-01-14T06:14:55.036Z,33.07
2018-01-14T06:17:23.391Z,35.07
2018-01-14T06:19:51.757Z,42.23
2018-01-14T06:22:20.123Z,31.20
2018-01-14T06:24:48.481Z,59.77
2018-01-14T06:27:16.847Z,32.27
2018-01-14T06:29:45.227Z,32.80
2018-01-14T06:32:13.666Z,32.97
2018-01-14T06:34:42.060Z,34.93
2018-01-14T06:37:10.521Z,32.13
2018-01-14T06:39:38.884Z,27.70
2018-01-14T06:42:07.259Z,30.07
2018-01-14T06:44:35.631Z,30.30
2018-01-14T06:47:04.003Z,31.37
2018-01-14T06:49:32.417Z,31.43
2018-01-14T06:52:00.780Z,30.33
2018-01-14T06:54:29.253Z,35.97
2018-01-14T06:56:57.636Z,39.43
2018-01-14T06:59:25.991Z,36.17
2018-01-14T07:01:54.508Z,30.27
2018-01-14T07:04:23.316Z,38.70
2018-01-14T07:06:51.680Z,37.90
2018-01-14T07:09:20.155Z,35.77
2018-01-14T07:11:48.535Z,36.13
2018-01-14T07:14:16.912Z,35.03
2018-01-14T07:16:45.291Z,41.40
2018-01-14T07:19:13.850Z,31.90
2018-01-14T07:21:42.579Z,34.40
2018-01-14T07:24:10.939Z,30.97
2018-01-14T07:26:39.412Z,34.87
2018-01-14T07:29:07.778Z,31.97
2018-01-14T07:31:36.158Z,35.00
2018-01-14T07:34:04.796Z,34.57
2018-01-14T07:36:33.369Z,32.07
2018-01-14T07:39:01.728Z,40.07
2018-01-14T07:41:30.203Z,31.57
2018-01-14T07:43:58.599Z,32.53
2018-01-14T07:46:26.976Z,30.23
2018-01-14T07:48:55.324Z,28.60
2018-01-14T07:51:23.751Z,33.70
2018-01-14T07:53:52.115Z,33.53
2018-01-14T07:56:20.495Z,32.47
2018-01-14T07:58:48.941Z,36.90
2018-01-14T08:01:17.443Z,28.87
2018-01-14T08:03:45.800Z,33.43
2018-01-14T08:06:14.308Z,31.77
2018-01-14T08:08:42.685Z,29.10
2018-01-14T08:11:11.070Z,33.90
2018-01-14T08:13:39.467Z,32.10
2018-01-14T08:16:07.831Z,32.67
2018-01-14T08:18:36.205Z,32.40
2018-01-14T08:21:04.568Z,30.07
2018-01-14T08:23:32.963Z,29.17
2018-01-14T08:26:01.441Z,31.93
2018-01-14T08:28:29.821Z,31.83
2018-01-14T08:30:58.404Z,37.07
2018-01-14T08:33:26.772Z,30.90
2018-01-14T08:35:55.151Z,31.80
2018-01-14T08:38:23.506Z,31.17
2018-01-14T08:40:51.860Z,33.30
2018-01-14T08:43:20.647Z,29.17
2018-01-14T08:45:49.387Z,30.47
2018-01-14T08:48:17.756Z,28.03
2018-01-14T08:50:46.148Z,29.27
2018-01-14T08:53:14.530Z,33.13
2018-01-14T08:55:42.920Z,23.80
2018-01-14T08:58:11.289Z,30.00
2018-01-14T09:00:39.860Z,37.53
2018-01-14T09:03:08.211Z,26.63
2018-01-14T09:05:36.591Z,57.00
2018-01-14T09:08:05.012Z,62.07
2018-01-14T09:10:33.395Z,55.63
2018-01-14T09:13:01.967Z,37.47
2018-01-14T09:15:30.335Z,41.10
2018-01-14T09:17:58.736Z,31.53
2018-01-14T09:20:27.124Z,27.60
2018-01-14T09:22:55.484Z,27.80
2018-01-14T09:25:23.861Z,26.87
2018-01-14T09:27:52.246Z,31.00
2018-01-14T09:30:38.440Z,21.80
2018-01-14T09:33:06.925Z,27.23
2018-01-14T09:35:35.312Z,26.40
2018-01-14T09:38:03.675Z,28.40
2018-01-14T09:40:32.078Z,22.93
2018-01-14T09:43:00.426Z,21.90
2018-01-14T09:45:28.820Z,20.07
2018-01-14T09:47:57.193Z,17.97
2018-01-14T09:50:25.674Z,21.03
2018-01-14T09:52:54.036Z,22.17
2018-01-14T09:55:22.510Z,21.90
2018-01-14T09:57:50.886Z,24.80
2018-01-14T10:00:19.367Z,18.97
2018-01-14T10:02:47.958Z,15.73
2018-01-14T10:05:16.359Z,21.77
2018-01-14T10:07:44.722Z,19.53
2018-01-14T10:10:13.096Z,19.43
2018-01-14T10:12:41.459Z,17.20
2018-01-14T10:15:09.847Z,17.63
2018-01-14T10:17:38.217Z,18.00
2018-01-14T10:20:06.571Z,27.17
2018-01-14T10:22:35.327Z,23.73
2018-01-14T10:25:03.688Z,23.20
2018-01-14T10:27:32.064Z,25.13
2018-01-14T10:30:00.868Z,16.70
2018-01-14T10:32:29.296Z,18.77
2018-01-14T10:34:57.898Z,21.30
2018-01-14T10:37:26.406Z,22.07
2018-01-14T10:39:56.622Z,15.77
2018-01-14T10:42:25.622Z,17.10
2018-01-14T10:44:53.990Z,16.40
2018-01-14T10:47:22.384Z,16.93
2018-01-14T10:49:50.740Z,15.97
2018-01-14T10:52:19.128Z,15.43
2018-01-14T10:54:47.493Z,15.23
2018-01-14T10:57:15.924Z,12.90
2018-01-14T10:59:44.676Z,15.57
2018-01-14T11:02:13.048Z,19.10
2018-01-14T11:04:42.179Z,14.07
2018-01-14T11:07:11.009Z,24.13
2018-01-14T11:09:39.371Z,15.93
2018-01-14T11:12:07.799Z,15.77
2018-01-14T11:14:36.249Z,14.93
2018-01-14T11:17:04.656Z,17.40
2018-01-14T11:19:33.008Z,14.13
2018-01-14T11:22:01.379Z,16.20
2018-01-14T11:24:29.737Z,17.50
2018-01-14T11:26:58.514Z,17.50
2018-01-14T11:29:38.632Z,15.50
2018-01-14T11:32:07.003Z,16.03
2018-01-14T11:34:35.355Z,19.17
2018-01-14T11:37:03.714Z,19.23
2018-01-14T11:39:32.124Z,12.60
2018-01-14T11:42:00.509Z,18.30
2018-01-14T11:44:28.915Z,19.23
2018-01-14T11:46:57.270Z,15.10
2018-01-14T11:49:25.687Z,16.87
2018-01-14T11:51:54.552Z,17.33
2018-01-14T11:54:22.911Z,18.33
2018-01-14T11:56:51.312Z,18.23
2018-01-14T11:59:19.684Z,14.80
2018-01-14T12:01:48.048Z,18.77
2018-01-14T12:04:16.464Z,23.03
2018-01-14T12:06:44.901Z,18.03
2018-01-14T12:09:13.336Z,13.87
2018-01-14T12:11:41.958Z,16.60
2018-01-14T12:14:10.375Z,18.63
2018-01-14T12:16:38.741Z,19.60
2018-01-14T12:19:07.127Z,19.70
2018-01-14T12:21:35.505Z,22.80
2018-01-14T12:24:03.865Z,21.90
2018-01-14T12:26:32.376Z,20.67
2018-01-14T12:29:00.741Z,20.77
2018-01-14T12:31:29.123Z,17.07
2018-01-14T12:37:18.975Z,19.27
2018-01-14T12:39:47.815Z,21.23
2018-01-14T12:42:16.182Z,19.83
2018-01-14T12:44:44.565Z,22.70
2018-01-14T12:47:12.939Z,15.37
2018-01-14T12:49:41.328Z,20.40
2018-01-14T12:52:09.718Z,22.13
2018-01-14T12:54:38.099Z,20.40
2018-01-14T12:57:06.479Z,22.60
2018-01-14T12:59:35.110Z,17.13
2018-01-14T13:02:04.831Z,15.97
2018-01-14T13:04:33.202Z,18.17
2018-01-14T13:07:02.478Z,18.83
2018-01-14T13:11:35.261Z,21.67
2018-01-14T13:14:03.634Z,22.57
2018-01-14T13:16:32.110Z,18.00
2018-01-14T13:19:00.472Z,21.17
2018-01-14T13:21:28.861Z,20.20
2018-01-14T13:23:57.236Z,22.50
2018-01-14T13:26:25.737Z,20.40
2018-01-14T13:28:54.088Z,21.10
2018-01-14T13:31:22.475Z,17.30
2018-01-14T13:33:50.831Z,20.27
2018-01-14T13:36:19.279Z,19.27
2018-01-14T13:38:48.120Z,21.77
2018-01-14T13:41:16.492Z,21.43
2018-01-14T13:43:44.858Z,20.07
2018-01-14T13:46:13.261Z,18.47
2018-01-14T13:48:41.612Z,17.80
2018-01-14T13:51:10.053Z,20.03
2018-01-14T13:53:38.912Z,27.10
2018-01-14T13:56:07.297Z,19.30
2018-01-14T13:58:35.649Z,25.40
2018-01-14T14:01:04.015Z,20.87
2018-01-14T14:03:32.422Z,22.77
2018-01-14T14:06:00.831Z,20.60
2018-01-14T14:08:29.227Z,17.43
2018-01-14T14:10:58.107Z,18.90
2018-01-14T14:13:26.469Z,20.63
2018-01-14T14:15:54.820Z,19.77
2018-01-14T14:18:23.199Z,20.90
2018-01-14T14:20:51.557Z,22.40
2018-01-14T14:23:19.943Z,17.30
2018-01-14T14:25:48.352Z,21.53
2018-01-14T14:28:16.703Z,19.00
2018-01-14T14:30:45.076Z,19.10
2018-01-14T14:33:13.480Z,20.73
2018-01-14T14:35:41.875Z,20.60
2018-01-14T14:38:10.236Z,21.90
2018-01-14T14:40:38.597Z,23.80
2018-01-14T14:43:06.947Z,29.40
2018-01-14T14:45:35.758Z,22.03
2018-01-14T14:50:39.101Z,23.10
2018-01-14T14:53:07.510Z,24.80
2018-01-14T14:55:35.869Z,22.93
2018-01-14T14:58:04.220Z,23.10
2018-01-14T15:00:32.576Z,23.23
2018-01-14T15:03:00.984Z,20.60
2018-01-14T15:05:29.372Z,25.57
2018-01-14T15:07:57.729Z,24.50
2018-01-14T15:10:26.084Z,25.43
2018-01-14T15:12:54.444Z,28.57
2018-01-14T15:15:23.227Z,20.73
2018-01-14T15:17:51.984Z,20.73
2018-01-14T15:20:20.354Z,22.70
2018-01-14T15:22:48.757Z,21.87
2018-01-14T15:25:17.116Z,21.13
2018-01-14T15:27:45.508Z,23.30
2018-01-14T15:30:13.949Z,20.53
2018-01-14T15:32:42.296Z,23.50
2018-01-14T15:35:11.168Z,27.13
2018-01-14T15:37:39.625Z,24.53
2018-01-14T15:40:07.980Z,23.63
2018-01-14T15:42:36.348Z,27.73
2018-01-14T15:45:04.770Z,22.30
2018-01-14T15:47:33.139Z,24.67
2018-01-14T15:50:01.500Z,28.67
2018-01-14T15:52:29.855Z,33.13
2018-01-14T15:54:58.276Z,20.87
2018-01-14T15:57:26.652Z,26.90
2018-01-14T15:59:55.036Z,23.40
2018-01-14T16:02:23.407Z,23.93
2018-01-14T16:04:51.801Z,32.50
2018-01-14T16:07:20.273Z,27.23
2018-01-14T16:09:48.680Z,22.70
2018-01-14T16:12:17.925Z,27.20
2018-01-14T16:14:46.279Z,28.00
2018-01-14T16:17:14.700Z,24.50
2018-01-14T16:19:43.052Z,29.03
2018-01-14T16:22:11.464Z,25.57
2018-01-14T16:24:39.840Z,27.03
2018-01-14T16:27:08.199Z,30.07
2018-01-14T16:29:36.580Z,31.67
2018-01-14T16:32:04.947Z,26.80
2018-01-14T16:34:33.303Z,30.00
2018-01-14T16:37:02.068Z,31.33
2018-01-14T16:39:30.534Z,31.53
2018-01-14T16:41:58.933Z,33.40
2018-01-14T16:44:27.389Z,30.63
2018-01-14T16:46:55.751Z,27.60
2018-01-14T16:49:24.124Z,26.37
2018-01-14T16:51:52.516Z,32.70
2018-01-14T16:54:20.919Z,27.70
2018-01-14T16:56:49.284Z,30.00
2018-01-14T16:59:17.642Z,31.93
2018-01-14T17:01:46.000Z,26.10
2018-01-14T17:04:14.353Z,33.07
2018-01-14T17:06:43.129Z,29.27
2018-01-14T17:09:11.543Z,32.20
2018-01-14T17:11:39.872Z,37.30
2018-01-14T17:14:08.417Z,39.50
2018-01-14T17:16:36.779Z,44.83
2018-01-14T17:19:05.316Z,31.23
2018-01-14T17:21:33.677Z,53.20
2018-01-14T17:24:02.034Z,32.10
2018-01-14T17:26:30.388Z,37.20
2018-01-14T17:28:59.337Z,37.63
2018-01-14T17:31:27.773Z,35.93
2018-01-14T17:33:56.152Z,33.20
2018-01-14T17:36:24.513Z,32.97
2018-01-14T17:38:53.360Z,43.80
2018-01-14T17:41:21.725Z,34.87
2018-01-14T17:43:50.088Z,37.67
2018-01-14T17:46:18.452Z,37.83
2018-01-14T17:48:46.800Z,34.23
2018-01-14T17:51:15.178Z,35.50
2018-01-14T17:53:43.657Z,32.30
2018-01-14T17:56:12.125Z,36.50
2018-01-14T17:58:40.490Z,42.73
2018-01-14T18:01:08.849Z,38.33
2018-01-14T18:03:37.211Z,36.93
2018-01-14T18:06:05.629Z,33.17
2018-01-14T18:08:33.998Z,36.60
2018-01-14T18:11:02.362Z,39.93
2018-01-14T18:13:30.729Z,34.97
2018-01-14T18:15:59.098Z,35.23
2018-01-14T18:18:27.459Z,35.47
2018-01-14T18:20:56.325Z,33.73
2018-01-14T18:23:24.701Z,34.67
2018-01-14T18:25:53.076Z,34.50
2018-01-14T18:28:21.478Z,33.03
2018-01-14T18:30:50.245Z,36.60
2018-01-14T18:33:18.608Z,39.50
2018-01-14T18:35:47.014Z,36.03
2018-01-14T18:38:15.517Z,38.00
2018-01-14T18:40:44.044Z,35.03
2018-01-14T18:43:12.392Z,35.60
2018-01-14T18:46:13.472Z,30.23
2018-01-14T18:48:41.921Z,41.67
2018-01-14T18:51:10.332Z,44.53
2018-01-14T18:53:38.712Z,33.40
2018-01-14T18:56:07.080Z,34.33
2018-01-14T18:59:43.355Z,43.20
2018-01-14T19:02:11.759Z,44.43
2018-01-14T19:04:40.120Z,45.13
2018-01-14T19:07:09.151Z,42.03
2018-01-14T19:09:37.496Z,35.10
2018-01-14T19:12:05.868Z,36.70
2018-01-14T19:14:34.228Z,40.77
2018-01-14T19:17:02.612Z,43.47
2018-01-14T19:19:30.975Z,42.47
2018-01-14T19:21:59.333Z,34.90
2018-01-14T19:24:28.087Z,34.83
2018-01-14T19:26:56.566Z,45.93
2018-01-14T19:29:24.930Z,40.90
2018-01-14T19:31:53.409Z,39.00
2018-01-14T19:34:21.776Z,39.47
2018-01-14T19:36:50.137Z,41.10
2018-01-14T19:39:18.510Z,33.43
2018-01-14T19:41:46.893Z,46.40
2018-01-14T19:44:15.315Z,42.37
2018-01-14T19:46:43.884Z,36.87
2018-01-14T19:49:12.251Z,39.50
2018-01-14T19:51:40.627Z,43.93
2018-01-14T19:54:09.128Z,37.50
2018-01-14T19:56:37.590Z,37.10
2018-01-14T19:59:05.950Z,32.47
2018-01-14T20:01:34.746Z,37.97
2018-01-14T20:04:03.097Z,34.97
2018-01-14T20:06:31.855Z,36.30
2018-01-14T20:09:00.216Z,36.57
2018-01-14T20:11:28.605Z,36.27
2018-01-14T20:13:56.990Z,36.13
2018-01-14T20:16:25.374Z,38.10
2018-01-14T20:18:53.755Z,36.50
2018-01-14T20:21:22.232Z,35.07
2018-01-14T20:23:50.605Z,36.47
2018-01-14T20:26:19.058Z,37.93
2018-01-14T20:28:47.428Z,36.73
2018-01-14T20:31:15.804Z,35.43
2018-01-14T20:33:44.337Z,43.03
2018-01-14T20:36:12.712Z,36.97
2018-01-14T20:38:41.141Z,40.43
2018-01-14T20:41:09.480Z,41.00
2018-01-14T20:43:37.955Z,38.67
2018-01-14T20:46:06.324Z,34.47
2018-01-14T20:48:34.712Z,32.70
2018-01-14T20:51:03.076Z,33.97
2018-01-14T20:53:31.469Z,35.00
2018-01-14T20:55:59.842Z,39.27
2018-01-14T20:58:28.197Z,36.33
2018-01-14T21:00:56.576Z,32.80
2018-01-14T21:03:24.934Z,30.13
2018-01-14T21:05:53.357Z,35.10
2018-01-14T21:08:21.766Z,32.50
2018-01-14T21:10:50.620Z,38.47
2018-01-14T21:13:19.053Z,46.70
2018-01-14T21:15:47.419Z,41.37
2018-01-14T21:18:16.180Z,35.17
2018-01-14T21:20:44.540Z,35.73
2018-01-14T21:23:12.914Z,32.17
2018-01-14T21:25:41.267Z,40.90
2018-01-14T21:28:09.625Z,35.40
2018-01-14T21:30:38.391Z,32.23
2018-01-14T21:33:06.858Z,37.33
2018-01-14T21:35:35.224Z,31.73
2018-01-14T21:38:03.589Z,37.70
2018-01-14T21:40:31.944Z,33.87
2018-01-14T21:43:00.305Z,44.87
2018-01-14T21:45:29.075Z,32.13
2018-01-14T21:47:57.462Z,40.23
2018-01-14T21:50:25.824Z,37.17
2018-01-14T21:52:54.200Z,35.97
2018-01-14T21:55:22.650Z,47.73
2018-01-14T21:57:50.999Z,38.17
2018-01-14T22:00:19.379Z,39.23
2018-01-14T22:02:47.747Z,35.53
2018-01-14T22:05:16.594Z,43.90
2018-01-14T22:07:44.980Z,34.00
2018-01-14T22:10:13.342Z,32.17
2018-01-14T22:12:41.730Z,43.20
2018-01-14T22:15:10.119Z,39.17
2018-01-14T22:17:38.479Z,38.73
2018-01-14T22:20:06.838Z,50.37
2018-01-14T22:22:35.195Z,42.10
2018-01-14T22:25:03.571Z,40.30
2018-01-14T22:27:32.002Z,44.87
2018-01-14T22:30:00.361Z,35.67
2018-01-14T22:32:28.782Z,33.27
2018-01-14T22:34:57.141Z,42.00
2018-01-14T22:37:25.507Z,41.93
2018-01-14T22:39:53.903Z,44.17
2018-01-14T22:42:22.272Z,48.80
2018-01-14T22:44:50.639Z,82.30
2018-01-14T22:47:19.037Z,48.70
2018-01-14T22:49:47.401Z,56.43
2018-01-14T22:52:15.758Z,57.40
2018-01-14T22:54:44.128Z,39.60
2018-01-14T22:57:12.517Z,38.27
2018-01-14T22:59:40.881Z,37.83
2018-01-14T23:02:09.260Z,42.63
2018-01-14T23:04:37.640Z,49.23
2018-01-14T23:07:06.059Z,34.27
2018-01-14T23:09:34.424Z,36.60
2018-01-14T23:12:02.805Z,35.20
2018-01-14T23:14:31.189Z,37.70
2018-01-14T23:16:59.572Z,38.30
2018-01-14T23:19:27.967Z,35.43
2018-01-14T23:21:56.353Z,40.57
2018-01-14T23:24:24.719Z,41.33
2018-01-14T23:26:53.086Z,35.70
2018-01-14T23:29:21.469Z,37.80
2018-01-14T23:31:49.833Z,38.40
2018-01-14T23:34:18.204Z,41.23
2018-01-14T23:36:46.597Z,39.47
2018-01-14T23:39:14.948Z,39.83
2018-01-14T23:41:43.320Z,36.30
2018-01-14T23:44:11.683Z,36.10
2018-01-14T23:46:40.116Z,36.90
2018-01-14T23:49:08.466Z,36.33
2018-01-14T23:51:36.835Z,40.50
2018-01-14T23:54:05.259Z,36.43
2018-01-14T23:56:33.636Z,44.97
2018-01-14T23:59:02.016Z,39.30
